Aérodrome :
LOGIN :

S'inscrire | Disclaimer

   EN    FR    IT 

 










Légende :    VFR   VFR Marginal   IFR   IFR Intensif   IFR Très Intensif
Visi : 
Plafond : 
>= 8 km
>= 3000ft
5 à 8 km
1000 à 3000 ft
1500m à 5 km
500 à 1000 ft
800 à 1500m
200 à 500 ft
< 800m
< 200 ft
Symboles :   Orages  Brouillard  Fortes neiges  Fortes précipitations  Vent > 20 kt
SIGMETs :   Divers  Orages  Givrage  Turbulence  Onde Orograph.  Cendres Volcan.







- Altitude de l'aérodrome : 82 ft
- Code IATA : QIE
- Voir les cartes d'approche


LFMI - Istres

DERNIER METAR :
  • 261130Z AUTO 17009KT 140V200 CAVOK 37/17 Q1021 NOSIG

METARs EXPIRÉS :
  • 261100Z AUTO VRB06KT CAVOK 37/17 Q1021 NOSIG
  • 261030Z AUTO 14004KT 080V210 CAVOK 36/17 Q1021 NOSIG
  • 261000Z AUTO 08005KT 040V150 CAVOK 35/16 Q1021 NOSIG
  • 260930Z AUTO VRB05KT CAVOK 34/17 Q1022 NOSIG
  • 260900Z AUTO VRB02KT CAVOK 34/17 Q1022 BECMG 18013KT

TAF TAF LFMI
Valide du 26 à 09h jusqu'au 27 à 09h UTC


260800Z 2609/2709 VRB03KT CAVOK
BECMG 2610/2612 18013KT
BECMG 2617/2619 VRB03KT
TEMPO 2703/2707 02006KT
Pas de NOTAMs connus pour ce terrain.



MET'MAP, la Météo Aéronautique d'un coup d'oeil ! - Copyright ORBIFLY Décembre 2007 - Disclaimer

ORBIFLY MET'MAP TEAM :

Programmation & Développement : Alexandra Zaïnal
Conception & Développement : Baudouin d'Aumeries
Co-Programmation & Développement : Marc-Olivier Méhu
Soutien technique & logistique : Manuel Goepfert

Contact : metmap@orbifly.com




SOURCES & CREDITS :

   NOAA